sensor_id;sensor_type;location;lat;lon;timestamp;temperature;humidity
78467;SHT31;67759;51.972;5.650;2023-05-29T00:00:37;18.5;46.2
78467;SHT31;67759;51.972;5.650;2023-05-29T00:03:08;18.4;46.7
78467;SHT31;67759;51.972;5.650;2023-05-29T00:05:38;18.4;46.9
78467;SHT31;67759;51.972;5.650;2023-05-29T00:08:11;18.4;47.1
78467;SHT31;67759;51.972;5.650;2023-05-29T00:10:40;18.3;47.2
78467;SHT31;67759;51.972;5.650;2023-05-29T00:13:10;18.3;47.3
78467;SHT31;67759;51.972;5.650;2023-05-29T00:15:41;18.3;47.5
78467;SHT31;67759;51.972;5.650;2023-05-29T00:18:11;18.3;46.7
78467;SHT31;67759;51.972;5.650;2023-05-29T00:20:41;18.2;47.5
78467;SHT31;67759;51.972;5.650;2023-05-29T00:23:11;18.2;47.3
78467;SHT31;67759;51.972;5.650;2023-05-29T00:25:40;18.2;47.0
78467;SHT31;67759;51.972;5.650;2023-05-29T00:28:10;18.1;47.6
78467;SHT31;67759;51.972;5.650;2023-05-29T00:30:40;18.1;47.6
78467;SHT31;67759;51.972;5.650;2023-05-29T00:33:10;18.1;47.5
78467;SHT31;67759;51.972;5.650;2023-05-29T00:35:40;18.1;47.8
78467;SHT31;67759;51.972;5.650;2023-05-29T00:38:10;18.0;47.3
78467;SHT31;67759;51.972;5.650;2023-05-29T00:40:41;18.0;47.7
78467;SHT31;67759;51.972;5.650;2023-05-29T00:43:10;18.0;47.9
78467;SHT31;67759;51.972;5.650;2023-05-29T00:45:40;18.0;47.9
78467;SHT31;67759;51.972;5.650;2023-05-29T00:48:11;18.0;48.0
78467;SHT31;67759;51.972;5.650;2023-05-29T00:50:43;18.1;47.6
78467;SHT31;67759;51.972;5.650;2023-05-29T00:53:13;18.1;47.2
78467;SHT31;67759;51.972;5.650;2023-05-29T00:55:44;18.2;46.8
78467;SHT31;67759;51.972;5.650;2023-05-29T00:58:14;18.1;46.5
78467;SHT31;67759;51.972;5.650;2023-05-29T01:00:45;18.1;47.1
78467;SHT31;67759;51.972;5.650;2023-05-29T01:03:14;18.0;46.7
78467;SHT31;67759;51.972;5.650;2023-05-29T01:05:48;18.0;46.7
78467;SHT31;67759;51.972;5.650;2023-05-29T01:08:19;17.9;46.7
78467;SHT31;67759;51.972;5.650;2023-05-29T01:10:51;17.9;46.6
78467;SHT31;67759;51.972;5.650;2023-05-29T01:13:29;17.9;46.6
78467;SHT31;67759;51.972;5.650;2023-05-29T01:16:07;17.8;46.7
78467;SHT31;67759;51.972;5.650;2023-05-29T01:18:51;17.8;47.0
78467;SHT31;67759;51.972;5.650;2023-05-29T01:21:27;17.8;46.3
78467;SHT31;67759;51.972;5.650;2023-05-29T01:24:14;17.8;46.4
78467;SHT31;67759;51.972;5.650;2023-05-29T01:26:55;17.8;46.5
78467;SHT31;67759;51.972;5.650;2023-05-29T01:29:29;17.8;47.3
78467;SHT31;67759;51.972;5.650;2023-05-29T01:32:04;17.8;46.6
78467;SHT31;67759;51.972;5.650;2023-05-29T01:34:34;17.7;46.2
78467;SHT31;67759;51.972;5.650;2023-05-29T01:37:04;17.7;46.8
78467;SHT31;67759;51.972;5.650;2023-05-29T01:39:34;17.7;46.9
78467;SHT31;67759;51.972;5.650;2023-05-29T01:42:06;17.6;47.0
78467;SHT31;67759;51.972;5.650;2023-05-29T01:44:38;17.6;47.5
78467;SHT31;67759;51.972;5.650;2023-05-29T01:47:10;17.6;47.1
78467;SHT31;67759;51.972;5.650;2023-05-29T01:49:41;17.6;47.2
78467;SHT31;67759;51.972;5.650;2023-05-29T01:52:14;17.5;47.3
78467;SHT31;67759;51.972;5.650;2023-05-29T01:54:44;17.5;47.5
78467;SHT31;67759;51.972;5.650;2023-05-29T01:57:14;17.5;47.4
78467;SHT31;67759;51.972;5.650;2023-05-29T01:59:44;17.5;47.2
78467;SHT31;67759;51.972;5.650;2023-05-29T02:02:14;17.4;47.7
78467;SHT31;67759;51.972;5.650;2023-05-29T02:04:43;17.4;47.7
78467;SHT31;67759;51.972;5.650;2023-05-29T02:07:13;17.4;47.5
78467;SHT31;67759;51.972;5.650;2023-05-29T02:09:43;17.4;47.7
78467;SHT31;67759;51.972;5.650;2023-05-29T02:12:12;17.4;48.0
78467;SHT31;67759;51.972;5.650;2023-05-29T02:14:42;17.3;48.1
78467;SHT31;67759;51.972;5.650;2023-05-29T02:17:11;17.3;48.0
78467;SHT31;67759;51.972;5.650;2023-05-29T02:19:42;17.3;47.9
78467;SHT31;67759;51.972;5.650;2023-05-29T02:22:12;17.3;48.0
78467;SHT31;67759;51.972;5.650;2023-05-29T02:24:41;17.2;47.8
78467;SHT31;67759;51.972;5.650;2023-05-29T02:27:11;17.2;48.2
78467;SHT31;67759;51.972;5.650;2023-05-29T02:29:42;17.1;48.5
78467;SHT31;67759;51.972;5.650;2023-05-29T02:32:12;17.1;47.9
78467;SHT31;67759;51.972;5.650;2023-05-29T02:34:42;17.0;48.7
78467;SHT31;67759;51.972;5.650;2023-05-29T02:37:11;17.0;47.8
78467;SHT31;67759;51.972;5.650;2023-05-29T02:39:41;16.9;47.5
78467;SHT31;67759;51.972;5.650;2023-05-29T02:42:12;16.9;48.9
78467;SHT31;67759;51.972;5.650;2023-05-29T02:44:42;16.9;49.0
78467;SHT31;67759;51.972;5.650;2023-05-29T02:47:13;16.9;48.9
78467;SHT31;67759;51.972;5.650;2023-05-29T02:49:43;17.0;48.6
78467;SHT31;67759;51.972;5.650;2023-05-29T02:52:13;17.1;48.2
78467;SHT31;67759;51.972;5.650;2023-05-29T02:54:42;17.1;47.9
78467;SHT31;67759;51.972;5.650;2023-05-29T02:57:12;17.1;48.3
78467;SHT31;67759;51.972;5.650;2023-05-29T02:59:42;17.1;47.7
78467;SHT31;67759;51.972;5.650;2023-05-29T03:02:13;17.0;48.0
78467;SHT31;67759;51.972;5.650;2023-05-29T03:04:44;17.0;48.1
78467;SHT31;67759;51.972;5.650;2023-05-29T03:07:13;16.9;47.8
78467;SHT31;67759;51.972;5.650;2023-05-29T03:09:43;16.8;48.2
78467;SHT31;67759;51.972;5.650;2023-05-29T03:12:14;16.8;48.3
78467;SHT31;67759;51.972;5.650;2023-05-29T03:14:46;16.7;48.5
78467;SHT31;67759;51.972;5.650;2023-05-29T03:17:15;16.6;48.9
78467;SHT31;67759;51.972;5.650;2023-05-29T03:19:45;16.6;48.8
78467;SHT31;67759;51.972;5.650;2023-05-29T03:22:15;16.5;48.8
78467;SHT31;67759;51.972;5.650;2023-05-29T03:24:44;16.4;49.2
78467;SHT31;67759;51.972;5.650;2023-05-29T03:27:14;16.4;48.9
78467;SHT31;67759;51.972;5.650;2023-05-29T03:29:44;16.4;49.0
78467;SHT31;67759;51.972;5.650;2023-05-29T03:32:13;16.3;48.7
78467;SHT31;67759;51.972;5.650;2023-05-29T03:34:43;16.3;49.1
78467;SHT31;67759;51.972;5.650;2023-05-29T03:37:14;16.2;48.9
78467;SHT31;67759;51.972;5.650;2023-05-29T03:39:43;16.2;49.4
78467;SHT31;67759;51.972;5.650;2023-05-29T03:42:13;16.2;49.3
78467;SHT31;67759;51.972;5.650;2023-05-29T03:44:44;16.2;49.2
78467;SHT31;67759;51.972;5.650;2023-05-29T03:47:13;16.2;49.3
78467;SHT31;67759;51.972;5.650;2023-05-29T03:49:44;16.1;49.1
78467;SHT31;67759;51.972;5.650;2023-05-29T03:52:14;16.1;49.4
78467;SHT31;67759;51.972;5.650;2023-05-29T03:54:43;16.1;49.3
78467;SHT31;67759;51.972;5.650;2023-05-29T03:57:14;16.2;49.3
78467;SHT31;67759;51.972;5.650;2023-05-29T03:59:44;16.2;49.2
78467;SHT31;67759;51.972;5.650;2023-05-29T04:02:13;16.2;49.0
78467;SHT31;67759;51.972;5.650;2023-05-29T04:04:43;16.2;49.0
78467;SHT31;67759;51.972;5.650;2023-05-29T04:07:12;16.2;48.4
78467;SHT31;67759;51.972;5.650;2023-05-29T04:09:45;16.1;49.1
78467;SHT31;67759;51.972;5.650;2023-05-29T04:12:14;16.2;48.6
78467;SHT31;67759;51.972;5.650;2023-05-29T04:14:44;16.2;48.5
78467;SHT31;67759;51.972;5.650;2023-05-29T04:17:14;16.2;48.4
78467;SHT31;67759;51.972;5.650;2023-05-29T04:19:44;16.3;48.2
78467;SHT31;67759;51.972;5.650;2023-05-29T04:22:15;16.3;47.7
78467;SHT31;67759;51.972;5.650;2023-05-29T04:24:46;16.3;47.6
78467;SHT31;67759;51.972;5.650;2023-05-29T04:27:16;16.3;48.3
78467;SHT31;67759;51.972;5.650;2023-05-29T04:29:45;16.3;48.0
78467;SHT31;67759;51.972;5.650;2023-05-29T04:32:17;16.3;47.8
78467;SHT31;67759;51.972;5.650;2023-05-29T04:34:46;16.3;48.1
78467;SHT31;67759;51.972;5.650;2023-05-29T04:37:17;16.4;48.1
78467;SHT31;67759;51.972;5.650;2023-05-29T04:39:48;16.4;48.1
78467;SHT31;67759;51.972;5.650;2023-05-29T04:42:18;16.5;48.1
78467;SHT31;67759;51.972;5.650;2023-05-29T04:44:48;16.5;48.0
78467;SHT31;67759;51.972;5.650;2023-05-29T04:47:20;16.6;47.4
78467;SHT31;67759;51.972;5.650;2023-05-29T04:49:51;16.7;46.9
78467;SHT31;67759;51.972;5.650;2023-05-29T04:52:21;16.7;47.2
78467;SHT31;67759;51.972;5.650;2023-05-29T04:54:51;16.8;47.5
78467;SHT31;67759;51.972;5.650;2023-05-29T04:57:22;16.8;47.0
78467;SHT31;67759;51.972;5.650;2023-05-29T04:59:53;16.8;46.9
78467;SHT31;67759;51.972;5.650;2023-05-29T05:02:26;16.8;46.8
78467;SHT31;67759;51.972;5.650;2023-05-29T05:04:55;16.9;46.7
78467;SHT31;67759;51.972;5.650;2023-05-29T05:07:25;16.9;46.6
78467;SHT31;67759;51.972;5.650;2023-05-29T05:09:55;17.0;46.3
78467;SHT31;67759;51.972;5.650;2023-05-29T05:12:24;17.1;46.4
78467;SHT31;67759;51.972;5.650;2023-05-29T05:14:54;17.2;46.3
78467;SHT31;67759;51.972;5.650;2023-05-29T05:17:23;17.3;45.6
78467;SHT31;67759;51.972;5.650;2023-05-29T05:19:53;17.3;45.4
78467;SHT31;67759;51.972;5.650;2023-05-29T05:22:23;17.4;45.1
78467;SHT31;67759;51.972;5.650;2023-05-29T05:24:53;17.4;45.1
78467;SHT31;67759;51.972;5.650;2023-05-29T05:27:22;17.4;45.2
78467;SHT31;67759;51.972;5.650;2023-05-29T05:29:52;17.4;45.5
78467;SHT31;67759;51.972;5.650;2023-05-29T05:32:22;17.4;44.9
78467;SHT31;67759;51.972;5.650;2023-05-29T05:34:52;17.4;45.0
78467;SHT31;67759;51.972;5.650;2023-05-29T05:37:21;17.4;44.9
78467;SHT31;67759;51.972;5.650;2023-05-29T05:39:51;17.4;44.7
78467;SHT31;67759;51.972;5.650;2023-05-29T05:42:21;17.5;44.7
78467;SHT31;67759;51.972;5.650;2023-05-29T05:44:50;17.5;44.3
78467;SHT31;67759;51.972;5.650;2023-05-29T05:47:20;17.5;44.5
78467;SHT31;67759;51.972;5.650;2023-05-29T05:49:50;17.6;44.9
78467;SHT31;67759;51.972;5.650;2023-05-29T05:52:20;17.6;44.3
78467;SHT31;67759;51.972;5.650;2023-05-29T05:54:49;17.6;44.5
78467;SHT31;67759;51.972;5.650;2023-05-29T05:57:19;17.7;44.0
78467;SHT31;67759;51.972;5.650;2023-05-29T05:59:51;17.8;44.7
78467;SHT31;67759;51.972;5.650;2023-05-29T06:02:22;17.8;43.9
78467;SHT31;67759;51.972;5.650;2023-05-29T06:04:52;17.9;43.7
78467;SHT31;67759;51.972;5.650;2023-05-29T06:07:22;18.0;43.5
78467;SHT31;67759;51.972;5.650;2023-05-29T06:09:52;18.0;42.8
78467;SHT31;67759;51.972;5.650;2023-05-29T06:12:21;18.1;43.4
78467;SHT31;67759;51.972;5.650;2023-05-29T06:14:51;18.2;43.1
78467;SHT31;67759;51.972;5.650;2023-05-29T06:17:21;18.3;41.7
78467;SHT31;67759;51.972;5.650;2023-05-29T06:19:51;18.4;41.5
78467;SHT31;67759;51.972;5.650;2023-05-29T06:22:21;18.4;41.9
78467;SHT31;67759;51.972;5.650;2023-05-29T06:24:52;18.5;41.5
78467;SHT31;67759;51.972;5.650;2023-05-29T06:27:22;18.5;41.0
78467;SHT31;67759;51.972;5.650;2023-05-29T06:29:53;18.6;40.8
78467;SHT31;67759;51.972;5.650;2023-05-29T06:32:22;18.6;40.6
78467;SHT31;67759;51.972;5.650;2023-05-29T06:34:52;18.7;40.2
78467;SHT31;67759;51.972;5.650;2023-05-29T06:37:22;18.7;40.7
78467;SHT31;67759;51.972;5.650;2023-05-29T06:39:51;18.8;39.6
78467;SHT31;67759;51.972;5.650;2023-05-29T06:42:21;18.9;39.8
78467;SHT31;67759;51.972;5.650;2023-05-29T06:44:52;19.0;39.2
78467;SHT31;67759;51.972;5.650;2023-05-29T06:47:21;19.1;39.0
78467;SHT31;67759;51.972;5.650;2023-05-29T06:49:51;19.1;39.2
78467;SHT31;67759;51.972;5.650;2023-05-29T06:52:20;19.2;39.4
78467;SHT31;67759;51.972;5.650;2023-05-29T06:54:50;19.2;39.8
78467;SHT31;67759;51.972;5.650;2023-05-29T06:57:22;19.4;39.4
78467;SHT31;67759;51.972;5.650;2023-05-29T06:59:52;19.7;39.2
78467;SHT31;67759;51.972;5.650;2023-05-29T07:02:22;19.9;38.3
78467;SHT31;67759;51.972;5.650;2023-05-29T07:04:53;20.1;38.4
78467;SHT31;67759;51.972;5.650;2023-05-29T07:07:23;20.3;37.0
78467;SHT31;67759;51.972;5.650;2023-05-29T07:09:53;20.4;37.5
78467;SHT31;67759;51.972;5.650;2023-05-29T07:12:23;20.5;36.3
78467;SHT31;67759;51.972;5.650;2023-05-29T07:14:53;20.6;36.7
78467;SHT31;67759;51.972;5.650;2023-05-29T07:17:22;20.6;37.1
78467;SHT31;67759;51.972;5.650;2023-05-29T07:19:52;20.6;37.2
78467;SHT31;67759;51.972;5.650;2023-05-29T07:22:22;20.7;36.7
78467;SHT31;67759;51.972;5.650;2023-05-29T07:24:52;20.8;35.8
78467;SHT31;67759;51.972;5.650;2023-05-29T07:27:21;20.8;36.4
78467;SHT31;67759;51.972;5.650;2023-05-29T07:29:52;20.7;36.7
78467;SHT31;67759;51.972;5.650;2023-05-29T07:32:22;20.8;36.0
78467;SHT31;67759;51.972;5.650;2023-05-29T07:34:52;20.9;35.5
78467;SHT31;67759;51.972;5.650;2023-05-29T07:37:23;20.9;35.2
78467;SHT31;67759;51.972;5.650;2023-05-29T07:39:53;21.0;35.7
78467;SHT31;67759;51.972;5.650;2023-05-29T07:42:23;21.1;35.8
78467;SHT31;67759;51.972;5.650;2023-05-29T07:44:56;21.2;35.9
78467;SHT31;67759;51.972;5.650;2023-05-29T07:47:25;21.3;37.1
78467;SHT31;67759;51.972;5.650;2023-05-29T07:49:55;21.4;35.7
78467;SHT31;67759;51.972;5.650;2023-05-29T07:52:24;21.6;36.2
78467;SHT31;67759;51.972;5.650;2023-05-29T07:54:54;21.7;36.0
78467;SHT31;67759;51.972;5.650;2023-05-29T07:57:23;21.8;35.2
78467;SHT31;67759;51.972;5.650;2023-05-29T07:59:53;22.0;34.9
78467;SHT31;67759;51.972;5.650;2023-05-29T08:02:23;22.1;34.7
78467;SHT31;67759;51.972;5.650;2023-05-29T08:04:53;22.1;34.3
78467;SHT31;67759;51.972;5.650;2023-05-29T08:07:23;22.2;34.2
78467;SHT31;67759;51.972;5.650;2023-05-29T08:09:54;22.3;34.5
78467;SHT31;67759;51.972;5.650;2023-05-29T08:12:24;22.4;34.2
78467;SHT31;67759;51.972;5.650;2023-05-29T08:14:56;22.4;34.6
78467;SHT31;67759;51.972;5.650;2023-05-29T08:17:25;22.5;33.9
78467;SHT31;67759;51.972;5.650;2023-05-29T08:19:55;22.6;33.8
78467;SHT31;67759;51.972;5.650;2023-05-29T08:22:29;22.6;34.5
78467;SHT31;67759;51.972;5.650;2023-05-29T08:24:59;22.7;33.6
78467;SHT31;67759;51.972;5.650;2023-05-29T08:27:29;22.7;33.9
78467;SHT31;67759;51.972;5.650;2023-05-29T08:29:59;22.8;33.0
78467;SHT31;67759;51.972;5.650;2023-05-29T08:32:29;22.9;33.3
78467;SHT31;67759;51.972;5.650;2023-05-29T08:34:59;23.0;33.8
78467;SHT31;67759;51.972;5.650;2023-05-29T08:37:28;23.2;33.0
78467;SHT31;67759;51.972;5.650;2023-05-29T08:39:58;23.4;33.6
78467;SHT31;67759;51.972;5.650;2023-05-29T08:42:30;23.5;33.5
78467;SHT31;67759;51.972;5.650;2023-05-29T08:45:04;23.6;33.4
78467;SHT31;67759;51.972;5.650;2023-05-29T08:47:36;23.8;33.0
78467;SHT31;67759;51.972;5.650;2023-05-29T08:50:09;24.0;32.0
78467;SHT31;67759;51.972;5.650;2023-05-29T08:52:40;24.2;33.1
78467;SHT31;67759;51.972;5.650;2023-05-29T08:55:10;24.3;31.6
78467;SHT31;67759;51.972;5.650;2023-05-29T08:57:40;24.4;31.6
78467;SHT31;67759;51.972;5.650;2023-05-29T09:00:13;24.5;31.0
78467;SHT31;67759;51.972;5.650;2023-05-29T09:02:47;24.6;31.3
78467;SHT31;67759;51.972;5.650;2023-05-29T09:05:17;24.7;31.6
78467;SHT31;67759;51.972;5.650;2023-05-29T09:07:52;24.7;31.2
78467;SHT31;67759;51.972;5.650;2023-05-29T09:10:22;24.8;31.6
78467;SHT31;67759;51.972;5.650;2023-05-29T09:12:52;24.9;30.9
78467;SHT31;67759;51.972;5.650;2023-05-29T09:15:23;25.0;31.7
78467;SHT31;67759;51.972;5.650;2023-05-29T09:17:55;25.1;31.3
78467;SHT31;67759;51.972;5.650;2023-05-29T09:20:28;25.3;30.7
78467;SHT31;67759;51.972;5.650;2023-05-29T09:22:59;25.4;29.9
78467;SHT31;67759;51.972;5.650;2023-05-29T09:25:31;25.5;29.7
78467;SHT31;67759;51.972;5.650;2023-05-29T09:28:05;25.6;29.3
78467;SHT31;67759;51.972;5.650;2023-05-29T09:30:40;25.6;30.3
78467;SHT31;67759;51.972;5.650;2023-05-29T09:33:12;25.6;29.3
78467;SHT31;67759;51.972;5.650;2023-05-29T09:35:44;25.7;30.0
78467;SHT31;67759;51.972;5.650;2023-05-29T09:38:15;25.7;29.7
78467;SHT31;67759;51.972;5.650;2023-05-29T09:40:45;25.8;30.2
78467;SHT31;67759;51.972;5.650;2023-05-29T09:43:16;25.9;28.9
78467;SHT31;67759;51.972;5.650;2023-05-29T09:45:48;25.9;29.3
78467;SHT31;67759;51.972;5.650;2023-05-29T09:48:22;26.0;28.5
78467;SHT31;67759;51.972;5.650;2023-05-29T09:50:52;26.1;28.7
78467;SHT31;67759;51.972;5.650;2023-05-29T09:53:25;26.1;29.3
78467;SHT31;67759;51.972;5.650;2023-05-29T09:55:56;26.1;28.5
78467;SHT31;67759;51.972;5.650;2023-05-29T09:58:28;26.1;29.0
78467;SHT31;67759;51.972;5.650;2023-05-29T10:00:59;26.1;29.5
78467;SHT31;67759;51.972;5.650;2023-05-29T10:03:29;26.2;28.2
78467;SHT31;67759;51.972;5.650;2023-05-29T10:06:04;26.2;29.5
78467;SHT31;67759;51.972;5.650;2023-05-29T10:08:37;26.3;28.6
78467;SHT31;67759;51.972;5.650;2023-05-29T10:11:11;26.4;29.4
78467;SHT31;67759;51.972;5.650;2023-05-29T10:13:44;26.5;28.3
78467;SHT31;67759;51.972;5.650;2023-05-29T10:16:20;26.6;27.6
78467;SHT31;67759;51.972;5.650;2023-05-29T10:18:54;26.7;27.0
78467;SHT31;67759;51.972;5.650;2023-05-29T10:21:27;26.8;26.7
78467;SHT31;67759;51.972;5.650;2023-05-29T10:24:01;26.8;27.4
78467;SHT31;67759;51.972;5.650;2023-05-29T10:26:37;26.9;27.1
78467;SHT31;67759;51.972;5.650;2023-05-29T10:29:15;27.0;26.7
78467;SHT31;67759;51.972;5.650;2023-05-29T10:32:01;27.3;25.8
78467;SHT31;67759;51.972;5.650;2023-05-29T10:34:39;27.5;26.3
78467;SHT31;67759;51.972;5.650;2023-05-29T10:37:21;27.6;26.1
78467;SHT31;67759;51.972;5.650;2023-05-29T10:40:05;27.7;24.6
78467;SHT31;67759;51.972;5.650;2023-05-29T10:42:42;27.8;24.5
78467;SHT31;67759;51.972;5.650;2023-05-29T10:48:38;27.9;25.0
78467;SHT31;67759;51.972;5.650;2023-05-29T10:51:23;27.9;23.8
78467;SHT31;67759;51.972;5.650;2023-05-29T10:53:44;27.9;24.6
78467;SHT31;67759;51.972;5.650;2023-05-29T10:56:27;27.9;24.4
78467;SHT31;67759;51.972;5.650;2023-05-29T10:59:00;27.9;24.6
78467;SHT31;67759;51.972;5.650;2023-05-29T11:01:31;27.9;24.6
78467;SHT31;67759;51.972;5.650;2023-05-29T11:04:30;27.9;25.3
78467;SHT31;67759;51.972;5.650;2023-05-29T11:07:04;28.0;22.8
78467;SHT31;67759;51.972;5.650;2023-05-29T11:09:38;27.9;23.5
78467;SHT31;67759;51.972;5.650;2023-05-29T11:12:13;27.7;23.3
78467;SHT31;67759;51.972;5.650;2023-05-29T11:14:59;27.6;23.8
78467;SHT31;67759;51.972;5.650;2023-05-29T11:17:44;27.6;23.7
78467;SHT31;67759;51.972;5.650;2023-05-29T11:20:35;27.6;24.5
78467;SHT31;67759;51.972;5.650;2023-05-29T11:23:06;27.6;23.3
78467;SHT31;67759;51.972;5.650;2023-05-29T11:25:40;27.6;23.7
78467;SHT31;67759;51.972;5.650;2023-05-29T11:28:11;27.7;24.5
78467;SHT31;67759;51.972;5.650;2023-05-29T11:30:44;27.8;24.3
78467;SHT31;67759;51.972;5.650;2023-05-29T11:33:22;27.8;24.4
78467;SHT31;67759;51.972;5.650;2023-05-29T11:35:57;27.9;24.6
78467;SHT31;67759;51.972;5.650;2023-05-29T11:38:29;28.0;24.0
78467;SHT31;67759;51.972;5.650;2023-05-29T11:41:03;28.1;24.2
78467;SHT31;67759;51.972;5.650;2023-05-29T11:43:33;28.2;24.3
78467;SHT31;67759;51.972;5.650;2023-05-29T11:46:04;28.4;23.6
78467;SHT31;67759;51.972;5.650;2023-05-29T11:48:46;28.5;22.8
78467;SHT31;67759;51.972;5.650;2023-05-29T11:51:16;28.6;22.8
78467;SHT31;67759;51.972;5.650;2023-05-29T11:53:47;28.6;23.4
78467;SHT31;67759;51.972;5.650;2023-05-29T11:56:22;28.7;23.9
78467;SHT31;67759;51.972;5.650;2023-05-29T11:58:53;28.8;23.7
78467;SHT31;67759;51.972;5.650;2023-05-29T12:01:25;28.8;23.7
78467;SHT31;67759;51.972;5.650;2023-05-29T12:03:56;28.9;22.4
78467;SHT31;67759;51.972;5.650;2023-05-29T12:06:35;28.9;22.2
78467;SHT31;67759;51.972;5.650;2023-05-29T12:09:05;28.9;21.6
78467;SHT31;67759;51.972;5.650;2023-05-29T12:11:36;28.9;21.6
78467;SHT31;67759;51.972;5.650;2023-05-29T12:14:06;28.8;23.0
78467;SHT31;67759;51.972;5.650;2023-05-29T12:16:35;28.8;22.6
78467;SHT31;67759;51.972;5.650;2023-05-29T12:19:05;28.7;22.4
78467;SHT31;67759;51.972;5.650;2023-05-29T12:21:35;28.7;23.1
78467;SHT31;67759;51.972;5.650;2023-05-29T12:24:05;28.7;22.9
78467;SHT31;67759;51.972;5.650;2023-05-29T12:26:35;28.8;22.8
78467;SHT31;67759;51.972;5.650;2023-05-29T12:29:05;28.9;22.5
78467;SHT31;67759;51.972;5.650;2023-05-29T12:31:35;29.0;21.7
78467;SHT31;67759;51.972;5.650;2023-05-29T12:34:11;29.0;21.7
78467;SHT31;67759;51.972;5.650;2023-05-29T12:36:43;29.0;22.4
78467;SHT31;67759;51.972;5.650;2023-05-29T12:39:13;29.0;21.4
78467;SHT31;67759;51.972;5.650;2023-05-29T12:41:42;28.9;20.8
78467;SHT31;67759;51.972;5.650;2023-05-29T12:44:12;28.7;20.8
78467;SHT31;67759;51.972;5.650;2023-05-29T12:46:43;28.6;21.4
78467;SHT31;67759;51.972;5.650;2023-05-29T12:49:14;28.6;21.7
78467;SHT31;67759;51.972;5.650;2023-05-29T12:51:45;28.5;21.2
78467;SHT31;67759;51.972;5.650;2023-05-29T12:54:17;28.4;21.6
78467;SHT31;67759;51.972;5.650;2023-05-29T12:56:46;28.3;22.1
78467;SHT31;67759;51.972;5.650;2023-05-29T12:59:18;28.3;21.7
78467;SHT31;67759;51.972;5.650;2023-05-29T13:01:47;28.3;21.9
78467;SHT31;67759;51.972;5.650;2023-05-29T13:04:17;28.3;22.0
78467;SHT31;67759;51.972;5.650;2023-05-29T13:06:46;28.3;21.0
78467;SHT31;67759;51.972;5.650;2023-05-29T13:09:16;28.2;21.8
78467;SHT31;67759;51.972;5.650;2023-05-29T13:11:46;28.2;21.9
78467;SHT31;67759;51.972;5.650;2023-05-29T13:14:16;28.2;22.1
78467;SHT31;67759;51.972;5.650;2023-05-29T13:16:45;28.2;22.2
78467;SHT31;67759;51.972;5.650;2023-05-29T13:19:15;28.2;21.5
78467;SHT31;67759;51.972;5.650;2023-05-29T13:21:44;28.1;21.9
78467;SHT31;67759;51.972;5.650;2023-05-29T13:24:16;28.2;21.6
78467;SHT31;67759;51.972;5.650;2023-05-29T13:26:45;28.2;21.0
78467;SHT31;67759;51.972;5.650;2023-05-29T13:29:17;28.3;19.8
78467;SHT31;67759;51.972;5.650;2023-05-29T13:31:48;28.5;20.4
78467;SHT31;67759;51.972;5.650;2023-05-29T13:34:19;28.6;21.0
78467;SHT31;67759;51.972;5.650;2023-05-29T13:36:51;28.7;20.4
78467;SHT31;67759;51.972;5.650;2023-05-29T13:39:21;28.9;20.5
78467;SHT31;67759;51.972;5.650;2023-05-29T13:41:52;29.0;19.2
78467;SHT31;67759;51.972;5.650;2023-05-29T13:44:21;29.0;18.5
78467;SHT31;67759;51.972;5.650;2023-05-29T13:46:51;29.0;19.0
78467;SHT31;67759;51.972;5.650;2023-05-29T13:49:20;29.1;18.9
78467;SHT31;67759;51.972;5.650;2023-05-29T13:51:50;29.1;19.9
78467;SHT31;67759;51.972;5.650;2023-05-29T13:54:20;29.2;20.2
78467;SHT31;67759;51.972;5.650;2023-05-29T13:56:50;29.2;20.3
78467;SHT31;67759;51.972;5.650;2023-05-29T13:59:20;29.2;19.9
78467;SHT31;67759;51.972;5.650;2023-05-29T14:01:50;29.2;20.3
78467;SHT31;67759;51.972;5.650;2023-05-29T14:04:22;29.1;20.4
78467;SHT31;67759;51.972;5.650;2023-05-29T14:06:51;29.1;19.9
78467;SHT31;67759;51.972;5.650;2023-05-29T14:09:25;29.0;20.1
78467;SHT31;67759;51.972;5.650;2023-05-29T14:12:00;28.9;20.2
78467;SHT31;67759;51.972;5.650;2023-05-29T14:14:32;28.7;21.0
78467;SHT31;67759;51.972;5.650;2023-05-29T14:17:02;28.5;20.4
78467;SHT31;67759;51.972;5.650;2023-05-29T14:19:32;28.4;21.9
78467;SHT31;67759;51.972;5.650;2023-05-29T14:22:03;28.4;22.5
78467;SHT31;67759;51.972;5.650;2023-05-29T14:24:32;28.4;22.7
78467;SHT31;67759;51.972;5.650;2023-05-29T14:27:05;28.6;22.3
78467;SHT31;67759;51.972;5.650;2023-05-29T14:29:35;28.7;21.6
78467;SHT31;67759;51.972;5.650;2023-05-29T14:32:05;28.8;21.2
78467;SHT31;67759;51.972;5.650;2023-05-29T14:34:35;28.9;21.1
78467;SHT31;67759;51.972;5.650;2023-05-29T14:37:05;29.0;21.2
78467;SHT31;67759;51.972;5.650;2023-05-29T14:39:35;29.2;21.6
78467;SHT31;67759;51.972;5.650;2023-05-29T14:42:05;29.4;21.3
78467;SHT31;67759;51.972;5.650;2023-05-29T14:44:35;29.4;20.5
78467;SHT31;67759;51.972;5.650;2023-05-29T14:47:07;29.5;20.5
78467;SHT31;67759;51.972;5.650;2023-05-29T14:49:38;29.5;21.4
78467;SHT31;67759;51.972;5.650;2023-05-29T14:52:07;29.6;21.5
78467;SHT31;67759;51.972;5.650;2023-05-29T14:54:37;29.7;20.2
78467;SHT31;67759;51.972;5.650;2023-05-29T14:57:06;29.8;20.2
78467;SHT31;67759;51.972;5.650;2023-05-29T14:59:36;29.9;20.7
78467;SHT31;67759;51.972;5.650;2023-05-29T15:02:06;30.1;20.0
78467;SHT31;67759;51.972;5.650;2023-05-29T15:04:37;30.3;19.5
78467;SHT31;67759;51.972;5.650;2023-05-29T15:07:07;30.4;19.7
78467;SHT31;67759;51.972;5.650;2023-05-29T15:09:38;30.6;20.5
78467;SHT31;67759;51.972;5.650;2023-05-29T15:12:09;30.8;20.0
78467;SHT31;67759;51.972;5.650;2023-05-29T15:14:39;31.1;19.3
78467;SHT31;67759;51.972;5.650;2023-05-29T15:17:09;31.2;19.8
78467;SHT31;67759;51.972;5.650;2023-05-29T15:19:38;31.4;19.1
78467;SHT31;67759;51.972;5.650;2023-05-29T15:22:08;31.6;19.0
78467;SHT31;67759;51.972;5.650;2023-05-29T15:24:37;31.7;18.4
78467;SHT31;67759;51.972;5.650;2023-05-29T15:27:08;31.7;18.1
78467;SHT31;67759;51.972;5.650;2023-05-29T15:29:41;31.7;17.5
78467;SHT31;67759;51.972;5.650;2023-05-29T15:32:12;31.7;18.2
78467;SHT31;67759;51.972;5.650;2023-05-29T15:34:43;31.7;17.7
78467;SHT31;67759;51.972;5.650;2023-05-29T15:37:13;31.7;18.1
78467;SHT31;67759;51.972;5.650;2023-05-29T15:39:43;31.7;17.6
78467;SHT31;67759;51.972;5.650;2023-05-29T15:42:13;31.7;18.2
78467;SHT31;67759;51.972;5.650;2023-05-29T15:44:43;31.8;18.4
78467;SHT31;67759;51.972;5.650;2023-05-29T15:47:15;31.9;18.4
78467;SHT31;67759;51.972;5.650;2023-05-29T15:49:44;32.1;18.9
78467;SHT31;67759;51.972;5.650;2023-05-29T15:52:14;32.4;18.3
78467;SHT31;67759;51.972;5.650;2023-05-29T15:54:44;32.5;18.0
78467;SHT31;67759;51.972;5.650;2023-05-29T15:57:13;32.6;18.1
78467;SHT31;67759;51.972;5.650;2023-05-29T15:59:43;32.7;18.6
78467;SHT31;67759;51.972;5.650;2023-05-29T16:02:13;32.8;17.9
78467;SHT31;67759;51.972;5.650;2023-05-29T16:04:42;32.8;17.3
78467;SHT31;67759;51.972;5.650;2023-05-29T16:07:12;32.9;17.0
78467;SHT31;67759;51.972;5.650;2023-05-29T16:09:44;32.9;17.3
78467;SHT31;67759;51.972;5.650;2023-05-29T16:12:14;32.9;17.9
78467;SHT31;67759;51.972;5.650;2023-05-29T16:14:44;33.0;17.9
78467;SHT31;67759;51.972;5.650;2023-05-29T16:17:13;33.1;17.7
78467;SHT31;67759;51.972;5.650;2023-05-29T16:19:43;33.2;17.3
78467;SHT31;67759;51.972;5.650;2023-05-29T16:22:13;33.2;17.5
78467;SHT31;67759;51.972;5.650;2023-05-29T16:24:42;33.2;17.8
78467;SHT31;67759;51.972;5.650;2023-05-29T16:27:12;33.3;17.7
78467;SHT31;67759;51.972;5.650;2023-05-29T16:29:42;33.4;16.2